Waskesiu Lake, Canada
Current Conditions -  °F | °C
As of 12:00 PM on Thursday 23 Oct 2014 (Local Time) from CYPA Reporting Station
Light Rain Light Rain  
Wind Chill:   Ceiling: 9800
Heat Index:   Visibility: 10mi
Dew Point:   Wind: 9mph
Humidity: 100%   Direction: 140°SE
Pressure: 29.62"   Gusts: 17mph
Location:  53.92°N, 106.08°W
Report Text: CYPA 231800Z 14008G15KT 10SM -RA SCT005 OVC098 08/08 A2962 RMK ST4AC4 SLP045
Loading
Personal Weather Stations






























Interactive Weather Map
Tropical Storm Tracking
New forecast layout! Learn more

10-Day Weather Forecast

Advertisements
Track Severe Weather on mobile